Time;durP1;ratioP1;P1;durP2;ratioP2;P2;SDS_P1;SDS_P2;PMS_P1;PMS_P2;Temp;Humidity;BMP_temperature;BMP_pressure;BME280_temperature;BME280_humidity;BME280_pressure;Samples;Min_cycle;Max_cycle;Signal;HPM_P1;HPM_P2
2022/05/03 00:00:48;;;;;;;14.27;6.80;;;;;;;17.22;39.76;101289.25;4998222;28;99073;-71
2022/05/03 00:03:23;;;;;;;12.13;6.50;;;;;;;17.49;39.21;101287.75;5002276;28;97556;-70
2022/05/03 00:05:58;;;;;;;13.45;7.43;;;;;;;17.78;38.78;101283.50;5006526;28;96768;-69
2022/05/03 00:08:29;;;;;;;11.07;7.20;;;;;;;17.62;38.75;101287.09;4997140;28;100277;-69
2022/05/03 00:11:09;;;;;;;12.93;6.95;;;;;;;17.58;39.04;101294.41;5001795;28;99500;-70
2022/05/03 00:13:42;;;;;;;11.95;6.32;;;;;;;17.87;38.11;101293.63;5003632;28;97088;-70
2022/05/03 00:16:10;;;;;;;13.88;7.18;;;;;;;17.84;38.47;101280.47;5007263;28;96897;-70
2022/05/03 00:18:37;;;;;;;9.52;6.28;;;;;;;18.00;38.01;101287.59;5004652;28;97728;-69
2022/05/03 00:21:03;;;;;;;13.00;6.43;;;;;;;17.80;38.45;101278.03;5005554;28;99254;-68
2022/05/03 00:23:30;;;;;;;11.50;6.60;;;;;;;17.26;39.29;101282.84;5002989;28;96708;-69
2022/05/03 00:25:57;;;;;;;16.02;7.05;;;;;;;17.65;38.46;101270.91;4998454;28;97458;-70
2022/05/03 00:28:26;;;;;;;12.82;6.63;;;;;;;17.54;38.71;101274.13;4997546;28;99277;-69
2022/05/03 00:30:53;;;;;;;10.40;6.70;;;;;;;17.33;39.14;101268.16;5001420;28;98513;-69
2022/05/03 00:33:21;;;;;;;16.08;6.85;;;;;;;17.24;39.53;101275.84;4997163;28;98002;-69
2022/05/03 00:35:48;;;;;;;10.32;6.35;;;;;;;17.48;40.03;101271.81;5003801;28;96857;-68
2022/05/03 00:38:15;;;;;;;13.20;6.60;;;;;;;17.08;38.66;101263.31;5001391;28;99222;-69
2022/05/03 00:40:53;;;;;;;14.55;6.80;;;;;;;17.40;38.60;101260.66;5010804;28;97713;-71
2022/05/03 00:43:23;;;;;;;12.20;6.10;;;;;;;17.18;37.96;101261.00;5000691;28;97204;-70
2022/05/03 00:45:57;;;;;;;11.18;5.85;;;;;;;17.38;38.22;101265.25;5009795;28;96997;-69
2022/05/03 00:48:47;;;;;;;13.65;6.50;;;;;;;17.60;37.00;101249.72;5000235;28;98617;-69
2022/05/03 00:51:17;;;;;;;12.75;6.43;;;;;;;17.66;37.04;101249.41;4998442;28;98840;-70
2022/05/03 00:54:00;;;;;;;12.65;6.30;;;;;;;16.70;38.87;101256.50;5006522;28;96817;-69
2022/05/03 00:56:35;;;;;;;11.15;6.68;;;;;;;16.42;39.34;101256.16;4998241;28;97635;-71
2022/05/03 00:59:12;;;;;;;13.77;6.30;;;;;;;16.25;40.16;101249.91;5005465;28;98713;-69
2022/05/03 01:01:55;;;;;;;9.55;6.50;;;;;;;16.41;39.48;101241.97;5006857;28;98830;-69
2022/05/03 01:04:25;;;;;;;10.88;6.00;;;;;;;16.58;39.67;101246.44;5001315;28;96974;-68
2022/05/03 01:07:01;;;;;;;8.00;5.72;;;;;;;16.73;39.31;101251.00;5002871;28;97172;-69
2022/05/03 01:09:37;;;;;;;8.25;5.88;;;;;;;16.93;39.26;101241.94;4997514;28;97882;-69
2022/05/03 01:12:23;;;;;;;9.70;6.07;;;;;;;16.88;38.55;101247.50;4990888;28;98992;-69
2022/05/03 01:15:06;;;;;;;7.93;5.50;;;;;;;16.77;38.31;101243.69;5004280;28;96725;-70
2022/05/03 01:17:44;;;;;;;11.43;6.18;;;;;;;16.69;38.71;101252.09;4999619;28;98019;-69
2022/05/03 01:20:15;;;;;;;10.73;6.22;;;;;;;16.78;38.60;101248.94;5002010;28;99982;-71
2022/05/03 01:23:19;;;;;;;7.03;5.75;;;;;;;16.43;38.95;101249.88;4997032;28;99834;-69
2022/05/03 01:25:53;;;;;;;12.95;6.22;;;;;;;15.65;40.61;101260.94;5004379;28;97103;-70
2022/05/03 01:28:29;;;;;;;9.98;6.03;;;;;;;16.00;40.25;101259.22;5000645;28;98834;-69
2022/05/03 01:30:58;;;;;;;9.82;6.47;;;;;;;15.66;40.85;101257.34;5004032;28;99816;-69
2022/05/03 01:33:31;;;;;;;9.07;6.15;;;;;;;15.50;41.38;101260.69;4999541;28;98846;-70
2022/05/03 01:36:00;;;;;;;10.40;6.40;;;;;;;15.96;40.70;101269.16;5002895;28;97318;-69
2022/05/03 01:38:36;;;;;;;15.68;6.93;;;;;;;15.84;40.96;101264.44;4998746;28;97546;-70
2022/05/03 01:41:12;;;;;;;9.27;6.35;;;;;;;15.97;40.46;101259.34;4996117;28;98966;-69
2022/05/03 01:43:56;;;;;;;11.85;6.63;;;;;;;16.29;40.28;101256.78;5008104;28;99226;-69
2022/05/03 01:46:28;;;;;;;11.43;6.35;;;;;;;16.20;40.19;101251.09;5002309;28;96753;-70
2022/05/03 01:52:02;;;;;;;9.75;6.85;;;;;;;16.49;39.46;101250.44;5003319;28;97182;-68
2022/05/03 01:54:46;;;;;;;12.02;7.40;;;;;;;16.12;40.20;101250.59;4995218;28;99426;-70
2022/05/03 01:57:23;;;;;;;12.93;7.82;;;;;;;15.85;40.91;101258.16;4996492;28;96988;-70
2022/05/03 02:00:02;;;;;;;14.63;7.10;;;;;;;15.40;41.71;101266.53;5002821;28;96893;-69
2022/05/03 02:02:44;;;;;;;11.48;7.93;;;;;;;15.73;40.96;101258.78;5002844;28;98678;-70
2022/05/03 02:05:21;;;;;;;10.02;7.45;;;;;;;15.99;40.37;101250.34;4999625;28;98794;-68
2022/05/03 02:07:55;;;;;;;13.85;7.05;;;;;;;15.76;40.97;101255.94;5000531;28;98590;-70
2022/05/03 02:10:40;;;;;;;13.18;8.00;;;;;;;15.79;41.10;101253.16;5003487;28;97012;-69
2022/05/03 02:13:20;;;;;;;16.25;7.80;;;;;;;15.50;41.34;101247.38;4999300;28;99292;-70
2022/05/03 02:15:49;;;;;;;12.27;7.75;;;;;;;15.79;40.88;101245.16;4998937;28;98841;-69
2022/05/03 02:18:23;;;;;;;15.40;8.00;;;;;;;15.05;42.50;101246.88;5000747;28;98036;-69
2022/05/03 02:21:08;;;;;;;15.80;8.05;;;;;;;15.42;41.67;101243.38;4998983;28;96839;-70
2022/05/03 02:23:48;;;;;;;11.60;7.05;;;;;;;15.25;42.10;101243.28;5005433;28;99678;-69
2022/05/03 02:26:26;;;;;;;15.63;7.82;;;;;;;15.03;42.56;101248.78;5006166;28;99264;-69
2022/05/03 02:28:56;;;;;;;11.60;7.53;;;;;;;15.63;41.81;101236.16;5008018;28;98626;-69
2022/05/03 02:31:31;;;;;;;12.55;7.03;;;;;;;16.10;40.34;101234.69;5003608;28;97052;-69
2022/05/03 02:34:14;;;;;;;12.90;7.00;;;;;;;16.18;40.05;101234.28;5003209;28;97639;-70
2022/05/03 02:36:49;;;;;;;10.57;7.53;;;;;;;16.14;39.67;101236.28;5005834;28;99382;-69
2022/05/03 02:39:21;;;;;;;21.88;7.63;;;;;;;15.72;41.23;101249.91;5004736;28;96837;-69
2022/05/03 02:41:51;;;;;;;11.25;6.72;;;;;;;15.75;41.17;101255.06;5006550;28;98730;-69
2022/05/03 02:44:20;;;;;;;10.75;7.20;;;;;;;16.14;40.23;101241.59;5007620;28;99319;-70
2022/05/03 02:46:57;;;;;;;13.52;7.25;;;;;;;16.06;40.40;101249.13;5003636;28;99283;-70
2022/05/03 02:49:39;;;;;;;16.23;8.20;;;;;;;16.22;40.04;101243.84;5007363;28;98905;-70
2022/05/03 02:52:14;;;;;;;11.93;6.90;;;;;;;16.37;39.81;101245.75;5005223;28;97390;-69
2022/05/03 02:54:49;;;;;;;11.57;7.05;;;;;;;15.86;40.60;101249.25;5002756;28;99263;-71
2022/05/03 02:57:22;;;;;;;13.88;7.45;;;;;;;15.25;42.02;101260.13;5008767;28;97466;-71
2022/05/03 03:02:59;;;;;;;;;;;;;;;15.75;41.29;101255.06;4994683;28;96865;-71
2022/05/03 03:05:30;;;;;;;12.85;6.90;;;;;;;15.60;41.45;101261.16;5005167;28;99083;-71
2022/05/03 03:08:01;;;;;;;9.50;6.85;;;;;;;15.70;41.51;101262.44;5008377;28;98766;-71
2022/05/03 03:10:32;;;;;;;13.68;7.25;;;;;;;15.79;41.35;101263.81;5004686;28;96851;-71
2022/05/03 03:13:08;;;;;;;12.75;6.93;;;;;;;15.98;41.06;101261.94;5005757;28;97215;-70
2022/05/03 03:15:40;;;;;;;10.60;7.30;;;;;;;15.75;41.36;101255.06;5004072;28;97762;-70
2022/05/03 03:18:13;;;;;;;13.93;8.00;;;;;;;15.83;41.32;101265.38;5008096;28;99003;-70
2022/05/03 03:20:45;;;;;;;17.73;8.15;;;;;;;15.80;41.42;101265.53;5002395;28;98606;-71
2022/05/03 03:23:15;;;;;;;9.63;7.28;;;;;;;15.91;40.85;101272.06;5007290;28;97038;-71
2022/05/03 03:25:43;;;;;;;15.13;6.65;;;;;;;15.97;41.21;101272.69;5003621;28;98974;-69
2022/05/03 03:28:12;;;;;;;11.10;7.05;;;;;;;15.76;41.28;101264.81;5006227;28;97657;-69
2022/05/03 03:30:39;;;;;;;9.93;6.85;;;;;;;15.69;41.53;101258.03;5007897;28;97439;-70
2022/05/03 03:33:07;;;;;;;12.32;7.32;;;;;;;15.62;41.69;101255.78;5005034;28;97011;-69
2022/05/03 03:35:36;;;;;;;11.00;7.07;;;;;;;15.40;41.85;101270.06;4999935;28;99188;-69
2022/05/03 03:38:11;;;;;;;10.98;6.50;;;;;;;15.23;42.25;101263.81;5001227;28;101593;-70
2022/05/03 03:40:37;;;;;;;11.27;6.97;;;;;;;15.49;42.44;101264.28;5008907;28;96877;-70
2022/05/03 03:43:04;;;;;;;14.23;7.07;;;;;;;15.64;41.75;101272.53;5002129;28;96840;-70
2022/05/03 03:45:30;;;;;;;16.10;7.82;;;;;;;15.48;41.78;101273.25;5004880;28;97844;-71
2022/05/03 03:47:57;;;;;;;14.43;6.93;;;;;;;15.26;41.76;101272.50;5004752;28;97518;-70
2022/05/03 03:50:26;;;;;;;12.65;7.03;;;;;;;15.11;42.56;101270.56;5001104;28;96705;-69
2022/05/03 03:52:53;;;;;;;9.57;6.53;;;;;;;15.05;42.24;101262.84;5002941;28;98476;-70
2022/05/03 03:55:21;;;;;;;9.35;6.15;;;;;;;15.05;42.76;101265.50;5003038;28;98982;-70
2022/05/03 03:57:48;;;;;;;15.27;7.13;;;;;;;15.38;42.01;101271.94;4996247;28;99065;-69
2022/05/03 04:00:16;;;;;;;8.93;6.43;;;;;;;15.60;41.16;101268.28;4999483;28;96867;-71
2022/05/03 04:02:45;;;;;;;11.18;6.95;;;;;;;15.94;41.11;101271.06;5002232;28;97487;-69
2022/05/03 04:05:16;;;;;;;11.10;6.80;;;;;;;15.56;41.61;101274.72;5004736;28;99551;-70
2022/05/03 04:07:42;;;;;;;13.82;6.53;;;;;;;15.88;41.15;101264.19;5004046;28;99571;-70
2022/05/03 04:10:09;;;;;;;14.63;7.00;;;;;;;16.08;40.47;101267.72;5006747;28;96904;-69
2022/05/03 04:12:37;;;;;;;14.60;6.45;;;;;;;16.15;40.22;101279.75;4999263;28;96879;-69
2022/05/03 04:15:05;;;;;;;11.25;6.38;;;;;;;16.25;39.92;101270.38;5004502;28;99196;-71
2022/05/03 04:17:32;;;;;;;12.40;6.72;;;;;;;16.07;41.53;101279.31;5005659;28;98878;-67
2022/05/03 04:19:59;;;;;;;16.10;7.53;;;;;;;16.12;41.38;101271.94;5006858;28;96961;-66
2022/05/03 04:22:28;;;;;;;18.17;7.28;;;;;;;15.94;42.07;101266.59;4999767;28;96893;-68
2022/05/03 04:24:55;;;;;;;18.95;6.60;;;;;;;15.64;43.26;101275.19;5007419;28;98962;-68
2022/05/03 04:27:24;;;;;;;39.00;6.75;;;;;;;15.58;44.20;101278.16;5003891;28;98770;-67
2022/05/03 04:29:52;;;;;;;22.50;7.15;;;;;;;15.56;43.72;101280.88;5006581;28;96665;-67
2022/05/03 04:32:19;;;;;;;17.50;7.13;;;;;;;15.45;43.79;101278.69;5004293;28;96991;-68
2022/05/03 04:34:45;;;;;;;10.23;6.43;;;;;;;16.08;42.06;101284.53;5003341;28;99750;-69
2022/05/03 04:37:12;;;;;;;16.67;7.32;;;;;;;15.85;41.97;101287.47;5003972;28;99233;-68
2022/05/03 04:39:38;;;;;;;19.27;7.00;;;;;;;15.98;41.81;101291.28;5001609;28;96847;-70
2022/05/03 04:42:06;;;;;;;14.68;7.07;;;;;;;16.05;41.24;101291.84;5000061;28;96904;-69
2022/05/03 04:44:32;;;;;;;17.27;6.70;;;;;;;16.01;40.75;101292.94;5003797;28;98335;-71
2022/05/03 04:47:00;;;;;;;12.32;5.88;;;;;;;16.14;40.76;101300.25;5001971;28;99009;-71
2022/05/03 04:49:27;;;;;;;19.10;6.72;;;;;;;16.48;39.65;101298.53;5004875;28;96764;-69
2022/05/03 04:51:54;;;;;;;12.27;6.85;;;;;;;16.65;39.53;101293.22;5001296;28;99078;-67
2022/05/03 04:54:20;;;;;;;12.02;6.97;;;;;;;16.65;39.15;101301.25;5005267;28;101581;-69
2022/05/03 04:56:52;;;;;;;16.00;7.28;;;;;;;16.63;39.42;101303.13;4998671;28;97679;-68
2022/05/03 04:59:18;;;;;;;11.05;6.50;;;;;;;16.48;39.29;101306.53;5000477;28;97879;-69
2022/05/03 05:01:45;;;;;;;11.48;6.75;;;;;;;16.71;38.64;101300.91;5006017;28;97571;-68
2022/05/03 05:04:12;;;;;;;12.65;6.40;;;;;;;16.56;38.83;101304.34;5001585;28;102056;-69
2022/05/03 05:06:39;;;;;;;13.93;6.43;;;;;;;16.80;38.71;101308.47;5000362;28;98787;-67
2022/05/03 05:09:05;;;;;;;12.57;5.90;;;;;;;16.43;38.53;101311.25;4999696;28;97232;-68
2022/05/03 05:11:32;;;;;;;10.07;6.32;;;;;;;16.83;38.23;101305.59;4997352;28;97791;-68
2022/05/03 05:13:59;;;;;;;11.38;5.40;;;;;;;16.89;37.92;101307.94;5002286;28;99121;-70
2022/05/03 05:16:25;;;;;;;8.77;5.03;;;;;;;16.92;37.11;101305.13;5000518;28;101305;-69
2022/05/03 05:18:52;;;;;;;8.50;4.97;;;;;;;16.84;36.94;101312.69;4999125;28;97544;-69
2022/05/03 05:21:19;;;;;;;8.50;5.38;;;;;;;16.75;37.09;101313.16;5001121;28;97234;-69
2022/05/03 05:23:46;;;;;;;12.00;5.32;;;;;;;16.75;36.71;101313.16;5001963;28;98003;-69
2022/05/03 05:26:13;;;;;;;15.05;5.47;;;;;;;17.09;36.58;101313.09;4997336;28;97584;-68
2022/05/03 05:28:39;;;;;;;11.68;5.93;;;;;;;17.09;36.57;101313.09;4995709;28;98544;-69
2022/05/03 05:31:12;;;;;;;10.52;4.75;;;;;;;17.11;35.98;101313.88;5000298;28;99073;-68
2022/05/03 05:33:38;;;;;;;11.27;5.13;;;;;;;17.30;36.03;101315.56;5004154;28;99373;-68
2022/05/03 05:36:05;;;;;;;11.68;5.15;;;;;;;17.27;35.31;101313.03;4998546;28;99369;-67
2022/05/03 05:38:33;;;;;;;11.45;5.40;;;;;;;17.57;34.75;101311.38;5001701;28;97063;-69
2022/05/03 05:40:59;;;;;;;14.38;4.93;;;;;;;17.67;35.19;101309.06;5000761;28;96936;-68
2022/05/03 05:43:26;;;;;;;10.60;5.82;;;;;;;17.90;34.68;101314.88;5005887;28;100883;-68
2022/05/03 05:45:55;;;;;;;9.85;4.00;;;;;;;17.73;33.09;101309.59;5001606;28;98941;-68
2022/05/03 05:48:22;;;;;;;18.88;4.07;;;;;;;17.06;34.25;101315.94;5005163;28;97077;-67
2022/05/03 05:50:48;;;;;;;12.35;4.57;;;;;;;16.50;34.88;101324.19;5008395;28;96896;-68
2022/05/03 05:53:32;;;;;;;9.82;3.95;;;;;;;16.27;35.66;101329.84;5012758;28;99380;-68
2022/05/03 05:56:00;;;;;;;16.17;3.72;;;;;;;16.88;34.98;101324.91;5014095;28;99104;-68
2022/05/03 05:58:27;;;;;;;12.52;3.22;;;;;;;17.07;33.64;101325.66;5006135;28;96736;-67
2022/05/03 06:00:54;;;;;;;9.45;3.38;;;;;;;17.18;33.33;101327.78;5015852;28;97284;-68
2022/05/03 06:03:22;;;;;;;9.00;3.53;;;;;;;17.48;32.95;101323.44;5011151;28;98917;-69
2022/05/03 06:05:49;;;;;;;11.45;3.58;;;;;;;18.11;31.93;101330.63;5008218;28;99315;-68
2022/05/03 06:08:15;;;;;;;14.35;3.00;;;;;;;18.21;31.66;101332.69;5010210;28;96882;-68
2022/05/03 06:10:42;;;;;;;6.47;2.90;;;;;;;18.31;31.44;101333.84;5012026;28;97243;-68
2022/05/03 06:13:12;;;;;;;17.58;3.20;;;;;;;17.96;31.53;101335.03;5014243;28;101421;-69
2022/05/03 06:15:38;;;;;;;14.90;5.15;;;;;;;18.09;32.01;101336.06;5012053;28;99252;-67
2022/05/03 06:18:06;;;;;;;9.20;3.28;;;;;;;18.12;30.72;101335.00;5003721;28;97400;-67
2022/05/03 06:20:33;;;;;;;13.65;3.05;;;;;;;18.12;30.75;101341.22;4999350;28;97279;-67
2022/05/03 06:22:59;;;;;;;5.45;2.28;;;;;;;17.24;30.95;101331.91;5005260;28;99396;-70
2022/05/03 06:25:26;;;;;;;6.60;2.38;;;;;;;16.87;31.73;101338.34;5009893;28;98311;-67
2022/05/03 06:27:52;;;;;;;4.10;2.22;;;;;;;16.47;32.65;101350.19;5003023;28;97524;-70
2022/05/03 06:30:20;;;;;;;36.55;8.07;;;;;;;17.08;32.06;101343.41;5009816;28;97271;-67
2022/05/03 06:32:47;;;;;;;8.10;2.83;;;;;;;17.63;31.09;101340.47;5002176;28;99426;-68
2022/05/03 06:35:14;;;;;;;8.57;2.47;;;;;;;17.98;30.64;101340.31;5007602;28;98748;-67
2022/05/03 06:37:42;;;;;;;4.65;2.53;;;;;;;19.08;29.30;101341.75;5008378;28;99420;-67
2022/05/03 06:40:10;;;;;;;4.50;2.45;;;;;;;19.65;28.03;101339.09;5007736;28;96901;-68
2022/05/03 06:42:38;;;;;;;6.68;2.38;;;;;;;19.56;28.22;101347.69;5004347;28;99372;-67
2022/05/03 06:45:06;;;;;;;5.32;2.63;;;;;;;19.79;28.25;101351.59;5009324;28;97723;-68
2022/05/03 06:47:34;;;;;;;7.70;2.47;;;;;;;19.74;27.48;101348.38;5013653;28;97094;-67
2022/05/03 06:50:01;;;;;;;10.30;3.30;;;;;;;19.84;27.42;101342.28;5014277;28;96959;-67
2022/05/03 06:52:27;;;;;;;15.60;4.57;;;;;;;19.89;27.81;101352.72;5010417;28;99489;-68
2022/05/03 06:54:54;;;;;;;7.25;3.50;;;;;;;19.56;28.14;101346.88;5010767;28;98793;-68
2022/05/03 06:57:20;;;;;;;6.95;2.40;;;;;;;19.50;28.00;101345.41;5011184;28;96742;-68
2022/05/03 06:59:47;;;;;;;8.35;2.22;;;;;;;18.87;28.48;101355.56;5012031;28;96790;-68
2022/05/03 07:02:13;;;;;;;6.45;2.28;;;;;;;18.62;28.77;101349.03;5011430;28;98444;-69
2022/05/03 07:04:43;;;;;;;4.82;2.13;;;;;;;18.73;29.09;101360.88;5006182;28;99208;-67
2022/05/03 07:07:11;;;;;;;4.90;2.38;;;;;;;18.56;29.23;101365.44;4999078;28;97171;-68
2022/05/03 07:09:37;;;;;;;8.95;2.10;;;;;;;18.30;29.79;101366.06;5005538;28;96756;-68
2022/05/03 07:12:05;;;;;;;2.83;2.35;;;;;;;19.16;28.80;101361.84;4999126;28;99015;-70
2022/05/03 07:14:32;;;;;;;12.82;2.20;;;;;;;19.18;28.67;101363.47;5011871;28;99743;-71
2022/05/03 07:16:58;;;;;;;7.53;2.10;;;;;;;20.21;27.55;101353.31;4999796;28;96798;-70
2022/05/03 07:24:55;;;;;;;7.18;2.08;;;;;;;20.33;27.43;101368.66;5003036;28;97054;-71
2022/05/03 07:27:22;;;;;;;5.30;1.90;;;;;;;20.24;27.00;101372.75;5010809;28;96851;-69
2022/05/03 07:29:48;;;;;;;3.75;1.63;;;;;;;19.48;27.93;101372.31;5005856;28;97283;-71
2022/05/03 07:32:15;;;;;;;4.55;2.30;;;;;;;19.63;27.69;101374.97;5010194;28;99124;-69
2022/05/03 07:34:42;;;;;;;6.65;2.75;;;;;;;19.71;27.27;101367.31;5006450;28;97734;-70
2022/05/03 07:37:09;;;;;;;4.70;1.80;;;;;;;19.59;27.83;101374.31;5009417;28;96742;-71
2022/05/03 07:39:37;;;;;;;7.50;1.77;;;;;;;19.14;28.17;101372.66;5009696;28;97022;-71
2022/05/03 07:42:04;;;;;;;6.13;2.15;;;;;;;18.88;28.91;101368.88;5011282;28;98329;-70
2022/05/03 07:44:30;;;;;;;5.00;1.80;;;;;;;19.51;28.28;101363.22;5006977;28;99242;-71
2022/05/03 07:47:01;;;;;;;3.83;1.90;;;;;;;20.38;26.73;101371.00;5008424;28;96861;-72
2022/05/03 07:49:27;;;;;;;7.82;2.38;;;;;;;19.69;27.79;101378.13;4998745;28;96796;-68
2022/05/03 07:51:54;;;;;;;10.13;2.47;;;;;;;19.77;27.83;101375.81;5000728;28;99288;-69
2022/05/03 07:54:20;;;;;;;4.75;2.55;;;;;;;20.39;27.05;101381.66;5007454;28;97533;-68
2022/05/03 07:56:48;;;;;;;7.25;2.30;;;;;;;20.08;27.47;101385.47;5006981;28;97022;-68
2022/05/03 07:59:15;;;;;;;5.50;2.40;;;;;;;20.39;27.44;101381.66;5006602;28;96743;-69
2022/05/03 08:01:41;;;;;;;4.68;2.60;;;;;;;20.35;27.94;101393.53;5006060;28;101784;-67
2022/05/03 08:04:08;;;;;;;11.60;3.08;;;;;;;20.30;28.03;101393.81;4989953;28;99028;-67
2022/05/03 08:06:36;;;;;;;5.97;2.70;;;;;;;20.53;27.96;101388.78;5002173;28;97004;-70
2022/05/03 08:09:02;;;;;;;5.88;2.97;;;;;;;20.54;27.47;101401.25;5008306;28;97061;-68
2022/05/03 08:11:29;;;;;;;5.82;2.78;;;;;;;21.64;26.12;101391.84;4999876;28;99309;-71
2022/05/03 08:13:57;;;;;;;8.15;3.00;;;;;;;22.03;25.48;101394.38;5007425;28;98016;-69
2022/05/03 08:16:25;;;;;;;9.90;2.58;;;;;;;21.37;26.58;101391.97;4998631;28;96865;-71
2022/05/03 08:18:51;;;;;;;5.53;2.85;;;;;;;21.00;26.66;101401.69;4999117;28;97199;-71
2022/05/03 08:21:18;;;;;;;9.93;3.13;;;;;;;21.01;26.80;101392.63;5001041;28;98888;-70
2022/05/03 08:23:44;;;;;;;8.85;2.60;;;;;;;20.17;27.91;101395.56;5002331;28;97601;-69
2022/05/03 08:26:11;;;;;;;9.63;2.85;;;;;;;19.02;29.67;101398.38;5005508;28;96814;-69
2022/05/03 08:28:37;;;;;;;6.38;3.53;;;;;;;19.59;28.62;101397.59;5003236;28;97089;-70
2022/05/03 08:31:05;;;;;;;8.32;2.90;;;;;;;20.27;27.94;101395.84;5006393;28;98909;-70
2022/05/03 08:33:32;;;;;;;7.85;3.03;;;;;;;20.29;27.71;101394.78;5006153;28;99115;-69
2022/05/03 08:35:58;;;;;;;7.35;2.95;;;;;;;20.22;27.93;101403.31;5004106;28;96786;-70
2022/05/03 08:43:53;;;;;;;6.43;2.20;;;;;;;21.08;25.96;101402.88;4998008;28;97278;-71
2022/05/03 08:46:23;;;;;;;8.23;2.60;;;;;;;20.09;27.42;101414.00;5002205;28;97511;-71
2022/05/03 08:48:56;;;;;;;5.07;3.35;;;;;;;20.15;27.18;101408.22;5002594;28;97101;-70
2022/05/03 08:51:23;;;;;;;6.85;2.60;;;;;;;19.70;27.91;101406.66;5001386;28;99061;-71
2022/05/03 08:53:50;;;;;;;7.00;2.42;;;;;;;19.40;27.78;101397.84;5000161;28;99289;-71
2022/05/03 08:56:18;;;;;;;8.02;3.05;;;;;;;19.64;27.67;101400.84;5000998;28;97362;-70
2022/05/03 08:58:45;;;;;;;5.05;2.30;;;;;;;19.33;28.24;101397.34;5009364;28;97665;-70
2022/05/03 09:01:12;;;;;;;5.93;2.28;;;;;;;18.94;29.30;101399.78;5001948;28;98883;-71
2022/05/03 09:03:40;;;;;;;8.45;2.40;;;;;;;20.12;27.83;101405.75;5005905;28;99994;-71
2022/05/03 09:06:07;;;;;;;5.00;1.88;;;;;;;20.66;26.00;101401.28;5002491;28;96767;-71
2022/05/03 09:08:35;;;;;;;4.40;2.30;;;;;;;20.26;27.25;101396.81;5003490;28;96973;-70
2022/05/03 09:11:12;;;;;;;9.38;2.67;;;;;;;21.23;26.04;101392.06;4996390;28;98500;-71
2022/05/03 09:13:40;;;;;;;6.63;1.80;;;;;;;21.68;25.37;101386.13;5004880;28;97345;-70
2022/05/03 09:16:11;;;;;;;6.32;2.20;;;;;;;22.14;24.79;101391.72;4998275;28;96729;-72
2022/05/03 09:18:38;;;;;;;6.68;2.00;;;;;;;22.13;24.57;101390.00;5004018;28;97164;-70
2022/05/03 09:24:06;;;;;;;3.72;2.10;;;;;;;21.25;25.49;101390.13;4994544;28;97409;-71
2022/05/03 09:26:33;;;;;;;3.75;1.80;;;;;;;21.54;24.94;101377.31;5004886;28;97442;-72
2022/05/03 09:29:02;;;;;;;6.07;1.50;;;;;;;22.10;24.29;101376.81;5006979;28;97591;-71
2022/05/03 09:31:31;;;;;;;4.68;1.63;;;;;;;20.75;25.85;101388.19;5005005;28;101540;-70
2022/05/03 09:33:59;;;;;;;6.38;2.05;;;;;;;21.05;25.89;101375.38;5005652;28;99003;-72
2022/05/03 09:36:28;;;;;;;3.22;1.95;;;;;;;21.34;25.12;101376.03;4997907;28;96665;-72
2022/05/03 09:38:57;;;;;;;9.57;4.22;;;;;;;20.58;25.83;101373.22;4999981;28;97448;-72
2022/05/03 09:41:24;;;;;;;4.60;2.58;;;;;;;21.06;25.43;101366.34;5000457;28;98894;-69
2022/05/03 09:44:05;;;;;;;3.80;1.70;;;;;;;21.51;25.00;101364.09;4998545;28;99138;-71
2022/05/03 09:46:50;;;;;;;6.55;2.50;;;;;;;21.74;24.97;101377.59;4998755;28;97046;-72
2022/05/03 09:49:18;;;;;;;7.22;2.03;;;;;;;20.79;25.93;101369.09;5001205;28;96944;-70
2022/05/03 09:51:47;;;;;;;9.00;2.45;;;;;;;21.62;25.10;101367.72;5002935;28;99094;-70
2022/05/03 09:54:14;;;;;;;3.55;2.10;;;;;;;21.60;24.81;101366.97;5002623;28;98273;-69
2022/05/03 09:56:41;;;;;;;4.50;1.90;;;;;;;21.67;24.60;101365.56;5001970;28;96735;-71
2022/05/03 09:59:09;;;;;;;20.08;2.10;;;;;;;21.19;25.22;101377.13;5008450;28;96811;-71
2022/05/03 10:01:36;;;;;;;3.63;1.77;;;;;;;21.58;24.64;101368.06;5005251;28;98155;-70
2022/05/03 10:04:05;;;;;;;7.95;1.50;;;;;;;21.89;24.16;101378.31;5005996;28;101833;-70
2022/05/03 10:06:33;;;;;;;1.20;1.10;;;;;;;21.38;24.01;101366.81;4996135;28;97107;-70
2022/05/03 10:09:01;;;;;;;6.40;1.40;;;;;;;21.00;24.39;101372.97;5004289;28;96893;-72
2022/05/03 10:11:30;;;;;;;4.25;1.25;;;;;;;21.32;23.78;101367.25;5001323;28;100988;-70
2022/05/03 10:13:56;;;;;;;2.95;2.00;;;;;;;21.63;23.63;101368.59;4997493;28;97631;-70
2022/05/03 10:22:00;;;;;;;;;;;;;;;20.62;25.67;101366.69;5000810;28;98940;-70
2022/05/03 10:24:29;;;;;;;6.43;1.65;;;;;;;20.93;25.34;101360.97;5006619;28;99972;-70
2022/05/03 10:27:06;;;;;;;10.18;1.83;;;;;;;21.14;25.29;101363.09;5006937;28;96919;-70
2022/05/03 10:29:35;;;;;;;3.65;1.55;;;;;;;20.50;26.41;101364.81;5006585;28;96866;-69
2022/05/03 10:32:04;;;;;;;5.07;1.38;;;;;;;21.23;24.99;101354.44;5009723;28;101305;-70
2022/05/03 10:34:56;;;;;;;3.35;1.65;;;;;;;21.47;24.82;101361.63;5007493;28;98770;-72
2022/05/03 10:37:56;;;;;;;2.15;1.52;;;;;;;20.87;24.64;101353.28;4997670;28;96912;-71
2022/05/03 10:40:32;;;;;;;4.22;1.27;;;;;;;21.15;25.18;101356.75;4995299;28;96941;-70
2022/05/03 10:43:10;;;;;;;4.88;1.20;;;;;;;20.73;25.17;101361.47;5004911;28;99275;-70
2022/05/03 10:45:54;;;;;;;3.08;1.48;;;;;;;20.76;24.83;101357.69;4996274;28;98889;-70
2022/05/03 10:48:26;;;;;;;4.57;1.40;;;;;;;20.33;25.68;101357.91;5002173;28;97236;-73
2022/05/03 10:50:53;;;;;;;3.10;1.77;;;;;;;20.91;25.00;101346.75;4996231;28;98130;-71
2022/05/03 10:53:24;;;;;;;1.00;0.85;;;;;;;21.47;24.26;101340.09;5000820;28;99107;-71
2022/05/03 10:56:21;;;;;;;5.28;1.10;;;;;;;21.71;23.72;101342.88;5004410;28;99002;-70
2022/05/03 10:59:06;;;;;;;5.25;1.88;;;;;;;20.36;25.57;101346.09;5000160;28;97070;-70
2022/05/03 11:01:33;;;;;;;5.35;1.77;;;;;;;20.22;25.82;101341.59;5002740;28;97022;-71
2022/05/03 11:04:11;;;;;;;5.63;1.20;;;;;;;20.24;25.79;101337.88;5006896;28;99453;-70
2022/05/03 11:06:49;;;;;;;1.45;1.08;;;;;;;21.16;24.54;101335.19;5006580;28;97623;-71
2022/05/03 11:09:26;;;;;;;2.92;1.05;;;;;;;21.69;23.57;101333.19;5011350;28;97276;-70
2022/05/03 11:12:06;;;;;;;2.83;1.00;;;;;;;21.85;24.06;101323.91;5012156;28;96983;-71
2022/05/03 11:14:48;;;;;;;3.03;1.10;;;;;;;21.82;24.18;101329.50;5011152;28;98786;-69
2022/05/03 11:17:15;;;;;;;4.20;1.50;;;;;;;20.99;25.27;101336.34;5009068;28;97539;-70
2022/05/03 11:19:51;;;;;;;2.22;1.30;;;;;;;20.71;25.78;101331.16;5008364;28;97654;-70
2022/05/03 11:22:19;;;;;;;4.90;1.23;;;;;;;21.27;24.93;101321.84;5002104;28;97044;-71
2022/05/03 11:24:47;;;;;;;5.85;1.25;;;;;;;20.87;25.09;101323.75;5002916;28;98873;-71
2022/05/03 11:27:16;;;;;;;1.25;1.00;;;;;;;21.14;25.04;101320.09;5004941;28;97557;-69
2022/05/03 11:29:45;;;;;;;2.22;1.00;;;;;;;21.23;25.31;101325.72;5005068;28;97341;-70
2022/05/03 11:32:12;;;;;;;6.00;1.58;;;;;;;20.64;25.45;101328.03;5005440;28;97048;-72
2022/05/03 11:34:39;;;;;;;2.08;0.93;;;;;;;20.53;25.35;101316.31;5002085;28;101196;-71
2022/05/03 11:37:07;;;;;;;4.80;0.93;;;;;;;21.39;24.63;101312.06;5005647;28;100715;-69
2022/05/03 11:39:36;;;;;;;1.65;0.95;;;;;;;20.51;25.20;101310.16;5003417;28;97404;-71
2022/05/03 11:42:04;;;;;;;2.58;1.33;;;;;;;20.86;25.04;101311.31;5007986;28;97047;-71
2022/05/03 11:44:32;;;;;;;2.83;0.70;;;;;;;21.16;24.91;101311.00;5005552;28;98674;-70
2022/05/03 11:47:03;;;;;;;2.28;0.73;;;;;;;21.17;24.72;101318.09;5005664;28;97557;-70
2022/05/03 11:49:31;;;;;;;4.63;0.82;;;;;;;21.35;24.44;101315.94;5004257;28;96784;-70
2022/05/03 11:57:34;;;;;;;7.72;1.75;;;;;;;22.24;23.48;101298.56;5001990;28;97199;-71
2022/05/03 12:00:04;;;;;;;0.82;0.70;;;;;;;22.67;23.06;101301.53;5006622;28;96898;-70
2022/05/03 12:02:32;;;;;;;3.42;0.80;;;;;;;21.76;24.50;101304.88;5007427;28;96941;-70
2022/05/03 12:05:12;;;;;;;1.60;0.70;;;;;;;22.63;23.77;101297.38;4998533;28;101794;-71
2022/05/03 12:07:41;;;;;;;2.03;0.80;;;;;;;22.84;23.31;101296.72;5004082;28;98235;-71